sensor_id;sensor_type;location;lat;lon;timestamp;P1;durP1;ratioP1;P2;durP2;ratioP2
76593;SDS011;65482;50.240;14.302;2024-03-07T00:00:42;38.80;;;17.33;;
76593;SDS011;65482;50.240;14.302;2024-03-07T00:03:28;38.95;;;16.55;;
76593;SDS011;65482;50.240;14.302;2024-03-07T00:05:55;40.17;;;17.20;;
76593;SDS011;65482;50.240;14.302;2024-03-07T00:08:21;39.67;;;16.17;;
76593;SDS011;65482;50.240;14.302;2024-03-07T00:10:49;44.17;;;17.08;;
76593;SDS011;65482;50.240;14.302;2024-03-07T00:13:15;35.35;;;16.75;;
76593;SDS011;65482;50.240;14.302;2024-03-07T00:15:41;40.53;;;17.48;;
76593;SDS011;65482;50.240;14.302;2024-03-07T00:18:07;42.17;;;17.25;;
76593;SDS011;65482;50.240;14.302;2024-03-07T00:20:33;44.20;;;18.42;;
76593;SDS011;65482;50.240;14.302;2024-03-07T00:22:59;38.72;;;17.15;;
76593;SDS011;65482;50.240;14.302;2024-03-07T00:25:25;34.72;;;16.13;;
76593;SDS011;65482;50.240;14.302;2024-03-07T00:27:51;33.90;;;15.77;;
76593;SDS011;65482;50.240;14.302;2024-03-07T00:30:19;27.20;;;14.27;;
76593;SDS011;65482;50.240;14.302;2024-03-07T00:32:48;32.63;;;14.35;;
76593;SDS011;65482;50.240;14.302;2024-03-07T00:35:15;29.70;;;14.27;;
76593;SDS011;65482;50.240;14.302;2024-03-07T00:37:41;29.58;;;14.95;;
76593;SDS011;65482;50.240;14.302;2024-03-07T00:40:07;32.10;;;14.75;;
76593;SDS011;65482;50.240;14.302;2024-03-07T00:42:35;27.20;;;13.93;;
76593;SDS011;65482;50.240;14.302;2024-03-07T00:45:01;26.83;;;13.73;;
76593;SDS011;65482;50.240;14.302;2024-03-07T00:47:28;25.00;;;13.80;;
76593;SDS011;65482;50.240;14.302;2024-03-07T00:49:55;25.75;;;13.38;;
76593;SDS011;65482;50.240;14.302;2024-03-07T00:52:21;26.55;;;13.65;;
76593;SDS011;65482;50.240;14.302;2024-03-07T00:54:47;30.73;;;14.15;;
76593;SDS011;65482;50.240;14.302;2024-03-07T00:57:12;26.27;;;13.57;;
76593;SDS011;65482;50.240;14.302;2024-03-07T00:59:38;26.95;;;14.07;;
76593;SDS011;65482;50.240;14.302;2024-03-07T01:02:04;24.98;;;13.15;;
76593;SDS011;65482;50.240;14.302;2024-03-07T01:04:30;27.58;;;13.15;;
76593;SDS011;65482;50.240;14.302;2024-03-07T01:06:56;28.42;;;13.55;;
76593;SDS011;65482;50.240;14.302;2024-03-07T01:09:24;27.48;;;13.50;;
76593;SDS011;65482;50.240;14.302;2024-03-07T01:11:50;26.75;;;13.73;;
76593;SDS011;65482;50.240;14.302;2024-03-07T01:14:18;25.90;;;13.55;;
76593;SDS011;65482;50.240;14.302;2024-03-07T01:16:44;29.42;;;14.25;;
76593;SDS011;65482;50.240;14.302;2024-03-07T01:19:12;27.25;;;13.20;;
76593;SDS011;65482;50.240;14.302;2024-03-07T01:21:38;26.90;;;13.75;;
76593;SDS011;65482;50.240;14.302;2024-03-07T01:24:05;26.27;;;13.70;;
76593;SDS011;65482;50.240;14.302;2024-03-07T01:26:31;30.95;;;14.52;;
76593;SDS011;65482;50.240;14.302;2024-03-07T01:28:59;28.20;;;14.52;;
76593;SDS011;65482;50.240;14.302;2024-03-07T01:31:25;26.58;;;12.98;;
76593;SDS011;65482;50.240;14.302;2024-03-07T01:33:52;30.83;;;14.63;;
76593;SDS011;65482;50.240;14.302;2024-03-07T01:36:19;27.15;;;13.93;;
76593;SDS011;65482;50.240;14.302;2024-03-07T01:38:46;26.67;;;14.65;;
76593;SDS011;65482;50.240;14.302;2024-03-07T01:41:12;25.88;;;13.02;;
76593;SDS011;65482;50.240;14.302;2024-03-07T01:43:40;24.30;;;12.10;;
76593;SDS011;65482;50.240;14.302;2024-03-07T01:46:06;29.15;;;13.15;;
76593;SDS011;65482;50.240;14.302;2024-03-07T01:48:33;23.85;;;12.25;;
76593;SDS011;65482;50.240;14.302;2024-03-07T01:50:59;22.77;;;12.45;;
76593;SDS011;65482;50.240;14.302;2024-03-07T01:53:30;22.70;;;12.35;;
76593;SDS011;65482;50.240;14.302;2024-03-07T01:55:56;23.30;;;12.25;;
76593;SDS011;65482;50.240;14.302;2024-03-07T01:58:23;26.42;;;12.63;;
76593;SDS011;65482;50.240;14.302;2024-03-07T02:00:49;23.48;;;12.02;;
76593;SDS011;65482;50.240;14.302;2024-03-07T02:03:16;20.70;;;12.00;;
76593;SDS011;65482;50.240;14.302;2024-03-07T02:05:43;21.35;;;12.02;;
76593;SDS011;65482;50.240;14.302;2024-03-07T02:08:09;24.85;;;12.65;;
76593;SDS011;65482;50.240;14.302;2024-03-07T02:10:35;22.63;;;12.07;;
76593;SDS011;65482;50.240;14.302;2024-03-07T02:13:01;21.48;;;12.07;;
76593;SDS011;65482;50.240;14.302;2024-03-07T02:15:29;23.10;;;11.90;;
76593;SDS011;65482;50.240;14.302;2024-03-07T02:17:55;26.90;;;12.52;;
76593;SDS011;65482;50.240;14.302;2024-03-07T02:20:20;24.27;;;12.55;;
76593;SDS011;65482;50.240;14.302;2024-03-07T02:22:47;21.98;;;12.23;;
76593;SDS011;65482;50.240;14.302;2024-03-07T02:25:16;24.13;;;12.27;;
76593;SDS011;65482;50.240;14.302;2024-03-07T02:27:42;24.83;;;12.85;;
76593;SDS011;65482;50.240;14.302;2024-03-07T02:30:11;24.52;;;12.63;;
76593;SDS011;65482;50.240;14.302;2024-03-07T02:32:38;26.25;;;13.10;;
76593;SDS011;65482;50.240;14.302;2024-03-07T02:35:04;23.92;;;12.70;;
76593;SDS011;65482;50.240;14.302;2024-03-07T02:37:33;27.65;;;13.07;;
76593;SDS011;65482;50.240;14.302;2024-03-07T02:39:58;24.42;;;12.38;;
76593;SDS011;65482;50.240;14.302;2024-03-07T02:42:24;23.98;;;12.73;;
76593;SDS011;65482;50.240;14.302;2024-03-07T02:44:50;22.25;;;12.13;;
76593;SDS011;65482;50.240;14.302;2024-03-07T02:47:18;22.73;;;12.77;;
76593;SDS011;65482;50.240;14.302;2024-03-07T02:49:44;22.42;;;12.80;;
76593;SDS011;65482;50.240;14.302;2024-03-07T02:52:10;23.83;;;12.43;;
76593;SDS011;65482;50.240;14.302;2024-03-07T02:54:37;22.63;;;12.77;;
76593;SDS011;65482;50.240;14.302;2024-03-07T02:57:03;23.85;;;13.02;;
76593;SDS011;65482;50.240;14.302;2024-03-07T02:59:29;26.65;;;12.48;;
76593;SDS011;65482;50.240;14.302;2024-03-07T03:01:56;26.05;;;13.80;;
76593;SDS011;65482;50.240;14.302;2024-03-07T03:04:21;23.00;;;12.40;;
76593;SDS011;65482;50.240;14.302;2024-03-07T03:06:48;22.52;;;12.40;;
76593;SDS011;65482;50.240;14.302;2024-03-07T03:09:13;22.90;;;12.48;;
76593;SDS011;65482;50.240;14.302;2024-03-07T03:11:46;25.20;;;12.85;;
76593;SDS011;65482;50.240;14.302;2024-03-07T03:14:12;23.35;;;12.52;;
76593;SDS011;65482;50.240;14.302;2024-03-07T03:16:42;24.45;;;12.52;;
76593;SDS011;65482;50.240;14.302;2024-03-07T03:19:09;23.83;;;13.07;;
76593;SDS011;65482;50.240;14.302;2024-03-07T03:21:36;25.92;;;12.95;;
76593;SDS011;65482;50.240;14.302;2024-03-07T03:24:03;24.20;;;12.88;;
76593;SDS011;65482;50.240;14.302;2024-03-07T03:26:30;26.65;;;13.20;;
76593;SDS011;65482;50.240;14.302;2024-03-07T03:28:57;23.13;;;12.93;;
76593;SDS011;65482;50.240;14.302;2024-03-07T03:31:23;25.20;;;12.80;;
76593;SDS011;65482;50.240;14.302;2024-03-07T03:33:49;23.15;;;12.95;;
76593;SDS011;65482;50.240;14.302;2024-03-07T03:36:16;24.10;;;12.52;;
76593;SDS011;65482;50.240;14.302;2024-03-07T03:38:42;28.75;;;14.30;;
76593;SDS011;65482;50.240;14.302;2024-03-07T03:41:08;21.90;;;12.20;;
76593;SDS011;65482;50.240;14.302;2024-03-07T03:43:34;23.77;;;12.85;;
76593;SDS011;65482;50.240;14.302;2024-03-07T03:46:00;23.67;;;12.27;;
76593;SDS011;65482;50.240;14.302;2024-03-07T03:48:27;29.23;;;12.52;;
76593;SDS011;65482;50.240;14.302;2024-03-07T03:50:54;22.63;;;11.88;;
76593;SDS011;65482;50.240;14.302;2024-03-07T03:53:19;23.80;;;12.65;;
76593;SDS011;65482;50.240;14.302;2024-03-07T03:55:45;23.60;;;11.70;;
76593;SDS011;65482;50.240;14.302;2024-03-07T03:58:11;24.58;;;12.20;;
76593;SDS011;65482;50.240;14.302;2024-03-07T04:00:37;21.50;;;12.00;;
76593;SDS011;65482;50.240;14.302;2024-03-07T04:03:04;23.10;;;12.18;;
76593;SDS011;65482;50.240;14.302;2024-03-07T04:05:30;21.65;;;12.23;;
76593;SDS011;65482;50.240;14.302;2024-03-07T04:07:56;24.73;;;11.23;;
76593;SDS011;65482;50.240;14.302;2024-03-07T04:10:22;24.27;;;12.40;;
76593;SDS011;65482;50.240;14.302;2024-03-07T04:12:48;25.20;;;11.85;;
76593;SDS011;65482;50.240;14.302;2024-03-07T04:15:15;24.02;;;11.75;;
76593;SDS011;65482;50.240;14.302;2024-03-07T04:17:43;22.35;;;12.18;;
76593;SDS011;65482;50.240;14.302;2024-03-07T04:20:12;24.92;;;12.27;;
76593;SDS011;65482;50.240;14.302;2024-03-07T04:22:39;24.13;;;11.73;;
76593;SDS011;65482;50.240;14.302;2024-03-07T04:25:06;23.15;;;12.20;;
76593;SDS011;65482;50.240;14.302;2024-03-07T04:27:36;27.08;;;12.80;;
76593;SDS011;65482;50.240;14.302;2024-03-07T04:30:06;23.65;;;11.80;;
76593;SDS011;65482;50.240;14.302;2024-03-07T04:32:33;25.23;;;12.02;;
76593;SDS011;65482;50.240;14.302;2024-03-07T04:35:02;25.02;;;12.18;;
76593;SDS011;65482;50.240;14.302;2024-03-07T04:37:32;24.15;;;11.90;;
76593;SDS011;65482;50.240;14.302;2024-03-07T04:40:05;25.55;;;12.63;;
76593;SDS011;65482;50.240;14.302;2024-03-07T04:42:43;23.83;;;11.95;;
76593;SDS011;65482;50.240;14.302;2024-03-07T04:45:11;23.42;;;12.80;;
76593;SDS011;65482;50.240;14.302;2024-03-07T04:47:39;24.65;;;12.02;;
76593;SDS011;65482;50.240;14.302;2024-03-07T04:50:09;24.52;;;12.23;;
76593;SDS011;65482;50.240;14.302;2024-03-07T04:52:40;24.83;;;12.32;;
76593;SDS011;65482;50.240;14.302;2024-03-07T04:55:10;22.48;;;11.80;;
76593;SDS011;65482;50.240;14.302;2024-03-07T04:57:37;21.52;;;11.65;;
76593;SDS011;65482;50.240;14.302;2024-03-07T05:00:08;22.52;;;11.25;;
76593;SDS011;65482;50.240;14.302;2024-03-07T05:02:46;21.38;;;11.27;;
76593;SDS011;65482;50.240;14.302;2024-03-07T05:05:13;21.85;;;11.52;;
76593;SDS011;65482;50.240;14.302;2024-03-07T05:07:39;24.45;;;12.25;;
76593;SDS011;65482;50.240;14.302;2024-03-07T05:10:06;26.25;;;12.18;;
76593;SDS011;65482;50.240;14.302;2024-03-07T05:12:32;22.70;;;12.18;;
76593;SDS011;65482;50.240;14.302;2024-03-07T05:14:59;30.13;;;14.02;;
76593;SDS011;65482;50.240;14.302;2024-03-07T05:17:24;29.15;;;13.85;;
76593;SDS011;65482;50.240;14.302;2024-03-07T05:19:51;26.58;;;13.85;;
76593;SDS011;65482;50.240;14.302;2024-03-07T05:22:16;27.65;;;14.55;;
76593;SDS011;65482;50.240;14.302;2024-03-07T05:24:43;33.92;;;14.32;;
76593;SDS011;65482;50.240;14.302;2024-03-07T05:27:10;27.35;;;14.25;;
76593;SDS011;65482;50.240;14.302;2024-03-07T05:29:39;29.10;;;14.40;;
76593;SDS011;65482;50.240;14.302;2024-03-07T05:32:20;28.50;;;15.48;;
76593;SDS011;65482;50.240;14.302;2024-03-07T05:34:48;32.97;;;16.40;;
76593;SDS011;65482;50.240;14.302;2024-03-07T05:37:14;28.73;;;14.82;;
76593;SDS011;65482;50.240;14.302;2024-03-07T05:39:40;31.63;;;15.98;;
76593;SDS011;65482;50.240;14.302;2024-03-07T05:42:06;28.88;;;15.68;;
76593;SDS011;65482;50.240;14.302;2024-03-07T05:44:33;33.55;;;16.27;;
76593;SDS011;65482;50.240;14.302;2024-03-07T05:46:58;35.08;;;14.98;;
76593;SDS011;65482;50.240;14.302;2024-03-07T05:49:26;31.42;;;16.10;;
76593;SDS011;65482;50.240;14.302;2024-03-07T05:51:53;31.23;;;15.88;;
76593;SDS011;65482;50.240;14.302;2024-03-07T05:54:26;35.85;;;16.65;;
76593;SDS011;65482;50.240;14.302;2024-03-07T05:56:54;28.30;;;15.38;;
76593;SDS011;65482;50.240;14.302;2024-03-07T06:02:14;33.83;;;16.63;;
76593;SDS011;65482;50.240;14.302;2024-03-07T06:04:53;34.45;;;16.83;;
76593;SDS011;65482;50.240;14.302;2024-03-07T06:07:28;31.00;;;15.70;;
76593;SDS011;65482;50.240;14.302;2024-03-07T06:13:06;35.70;;;16.55;;
76593;SDS011;65482;50.240;14.302;2024-03-07T06:15:33;34.35;;;16.15;;
76593;SDS011;65482;50.240;14.302;2024-03-07T06:18:00;33.97;;;17.27;;
76593;SDS011;65482;50.240;14.302;2024-03-07T06:20:26;33.15;;;16.65;;
76593;SDS011;65482;50.240;14.302;2024-03-07T06:22:51;34.10;;;16.55;;
76593;SDS011;65482;50.240;14.302;2024-03-07T06:25:20;30.45;;;16.17;;
76593;SDS011;65482;50.240;14.302;2024-03-07T06:28:00;35.33;;;17.42;;
76593;SDS011;65482;50.240;14.302;2024-03-07T06:31:17;39.90;;;17.25;;
76593;SDS011;65482;50.240;14.302;2024-03-07T06:33:53;29.33;;;15.40;;
76593;SDS011;65482;50.240;14.302;2024-03-07T06:36:19;34.45;;;16.73;;
76593;SDS011;65482;50.240;14.302;2024-03-07T06:39:10;33.95;;;16.63;;
76593;SDS011;65482;50.240;14.302;2024-03-07T06:41:50;47.85;;;17.38;;
76593;SDS011;65482;50.240;14.302;2024-03-07T06:44:29;34.15;;;16.35;;
76593;SDS011;65482;50.240;14.302;2024-03-07T06:47:06;36.78;;;16.35;;
76593;SDS011;65482;50.240;14.302;2024-03-07T06:49:48;32.75;;;16.55;;
76593;SDS011;65482;50.240;14.302;2024-03-07T06:52:14;34.25;;;16.98;;
76593;SDS011;65482;50.240;14.302;2024-03-07T06:54:48;47.35;;;17.85;;
76593;SDS011;65482;50.240;14.302;2024-03-07T07:00:24;31.65;;;16.83;;
76593;SDS011;65482;50.240;14.302;2024-03-07T07:02:57;31.88;;;16.65;;
76593;SDS011;65482;50.240;14.302;2024-03-07T07:05:39;34.08;;;16.80;;
76593;SDS011;65482;50.240;14.302;2024-03-07T07:08:22;39.75;;;17.52;;
76593;SDS011;65482;50.240;14.302;2024-03-07T07:11:15;31.98;;;16.67;;
76593;SDS011;65482;50.240;14.302;2024-03-07T07:22:45;34.15;;;17.10;;
76593;SDS011;65482;50.240;14.302;2024-03-07T07:25:28;33.25;;;16.67;;
76593;SDS011;65482;50.240;14.302;2024-03-07T07:28:02;33.92;;;16.55;;
76593;SDS011;65482;50.240;14.302;2024-03-07T07:30:50;30.55;;;16.30;;
76593;SDS011;65482;50.240;14.302;2024-03-07T07:33:42;32.97;;;14.80;;
76593;SDS011;65482;50.240;14.302;2024-03-07T07:36:21;30.13;;;15.18;;
76593;SDS011;65482;50.240;14.302;2024-03-07T07:39:07;28.73;;;15.15;;
76593;SDS011;65482;50.240;14.302;2024-03-07T07:51:56;25.00;;;12.90;;
76593;SDS011;65482;50.240;14.302;2024-03-07T07:54:22;27.85;;;12.75;;
76593;SDS011;65482;50.240;14.302;2024-03-07T07:56:50;27.27;;;13.25;;
76593;SDS011;65482;50.240;14.302;2024-03-07T07:59:18;26.67;;;12.98;;
76593;SDS011;65482;50.240;14.302;2024-03-07T08:01:45;24.30;;;12.48;;
76593;SDS011;65482;50.240;14.302;2024-03-07T08:04:12;24.63;;;12.70;;
76593;SDS011;65482;50.240;14.302;2024-03-07T08:06:42;23.10;;;12.15;;
76593;SDS011;65482;50.240;14.302;2024-03-07T08:09:08;28.50;;;12.98;;
76593;SDS011;65482;50.240;14.302;2024-03-07T08:11:36;26.05;;;12.13;;
76593;SDS011;65482;50.240;14.302;2024-03-07T08:14:03;26.30;;;12.20;;
76593;SDS011;65482;50.240;14.302;2024-03-07T08:16:29;24.27;;;11.15;;
76593;SDS011;65482;50.240;14.302;2024-03-07T08:19:00;26.65;;;12.75;;
76593;SDS011;65482;50.240;14.302;2024-03-07T08:21:27;28.45;;;12.73;;
76593;SDS011;65482;50.240;14.302;2024-03-07T08:24:03;24.15;;;12.88;;
76593;SDS011;65482;50.240;14.302;2024-03-07T08:26:54;30.60;;;12.63;;
76593;SDS011;65482;50.240;14.302;2024-03-07T08:29:28;25.05;;;11.95;;
76593;SDS011;65482;50.240;14.302;2024-03-07T08:32:04;21.23;;;11.82;;
76593;SDS011;65482;50.240;14.302;2024-03-07T08:35:08;27.92;;;13.15;;
76593;SDS011;65482;50.240;14.302;2024-03-07T08:37:55;24.75;;;12.57;;
76593;SDS011;65482;50.240;14.302;2024-03-07T08:40:31;23.48;;;12.55;;
76593;SDS011;65482;50.240;14.302;2024-03-07T08:43:12;26.33;;;12.35;;
76593;SDS011;65482;50.240;14.302;2024-03-07T08:45:44;25.08;;;12.38;;
76593;SDS011;65482;50.240;14.302;2024-03-07T08:48:19;19.05;;;11.73;;
76593;SDS011;65482;50.240;14.302;2024-03-07T08:50:51;22.20;;;11.63;;
76593;SDS011;65482;50.240;14.302;2024-03-07T08:53:26;23.90;;;12.45;;
76593;SDS011;65482;50.240;14.302;2024-03-07T08:56:38;30.67;;;12.20;;
76593;SDS011;65482;50.240;14.302;2024-03-07T08:59:23;26.35;;;12.65;;
76593;SDS011;65482;50.240;14.302;2024-03-07T09:02:15;22.27;;;11.63;;
76593;SDS011;65482;50.240;14.302;2024-03-07T09:04:41;19.80;;;11.27;;
76593;SDS011;65482;50.240;14.302;2024-03-07T09:07:07;21.38;;;12.52;;
76593;SDS011;65482;50.240;14.302;2024-03-07T09:09:37;21.02;;;11.73;;
76593;SDS011;65482;50.240;14.302;2024-03-07T09:12:09;22.83;;;12.40;;
76593;SDS011;65482;50.240;14.302;2024-03-07T09:14:35;23.20;;;12.40;;
76593;SDS011;65482;50.240;14.302;2024-03-07T09:17:05;26.85;;;12.43;;
76593;SDS011;65482;50.240;14.302;2024-03-07T09:19:33;20.05;;;11.50;;
76593;SDS011;65482;50.240;14.302;2024-03-07T09:22:00;22.45;;;11.25;;
76593;SDS011;65482;50.240;14.302;2024-03-07T09:24:32;22.40;;;12.52;;
76593;SDS011;65482;50.240;14.302;2024-03-07T09:27:00;21.90;;;11.90;;
76593;SDS011;65482;50.240;14.302;2024-03-07T09:29:26;24.42;;;13.30;;
76593;SDS011;65482;50.240;14.302;2024-03-07T09:31:53;21.20;;;11.82;;
76593;SDS011;65482;50.240;14.302;2024-03-07T09:34:24;23.52;;;12.45;;
76593;SDS011;65482;50.240;14.302;2024-03-07T09:36:51;23.60;;;12.75;;
76593;SDS011;65482;50.240;14.302;2024-03-07T09:39:17;20.65;;;12.68;;
76593;SDS011;65482;50.240;14.302;2024-03-07T09:41:50;22.90;;;11.23;;
76593;SDS011;65482;50.240;14.302;2024-03-07T09:44:17;22.58;;;11.77;;
76593;SDS011;65482;50.240;14.302;2024-03-07T09:49:25;20.00;;;10.43;;
76593;SDS011;65482;50.240;14.302;2024-03-07T09:52:25;22.98;;;11.27;;
76593;SDS011;65482;50.240;14.302;2024-03-07T09:54:55;21.75;;;12.15;;
76593;SDS011;65482;50.240;14.302;2024-03-07T09:58:04;19.20;;;10.57;;
76593;SDS011;65482;50.240;14.302;2024-03-07T10:00:32;22.63;;;11.32;;
76593;SDS011;65482;50.240;14.302;2024-03-07T10:03:17;18.60;;;11.00;;
76593;SDS011;65482;50.240;14.302;2024-03-07T10:05:47;23.05;;;11.05;;
76593;SDS011;65482;50.240;14.302;2024-03-07T10:08:15;18.48;;;10.48;;
76593;SDS011;65482;50.240;14.302;2024-03-07T10:10:44;18.58;;;10.25;;
76593;SDS011;65482;50.240;14.302;2024-03-07T10:13:10;22.15;;;11.45;;
76593;SDS011;65482;50.240;14.302;2024-03-07T10:16:05;22.55;;;11.60;;
76593;SDS011;65482;50.240;14.302;2024-03-07T10:18:43;21.83;;;11.57;;
76593;SDS011;65482;50.240;14.302;2024-03-07T10:23:44;20.75;;;10.30;;
76593;SDS011;65482;50.240;14.302;2024-03-07T10:26:12;23.50;;;11.80;;
76593;SDS011;65482;50.240;14.302;2024-03-07T10:28:38;20.70;;;10.93;;
76593;SDS011;65482;50.240;14.302;2024-03-07T10:31:11;29.10;;;11.43;;
76593;SDS011;65482;50.240;14.302;2024-03-07T10:34:01;24.38;;;12.48;;
76593;SDS011;65482;50.240;14.302;2024-03-07T10:36:30;20.75;;;11.30;;
76593;SDS011;65482;50.240;14.302;2024-03-07T10:39:00;20.45;;;11.10;;
76593;SDS011;65482;50.240;14.302;2024-03-07T10:42:02;22.92;;;11.25;;
76593;SDS011;65482;50.240;14.302;2024-03-07T10:44:50;20.60;;;9.38;;
76593;SDS011;65482;50.240;14.302;2024-03-07T10:47:40;19.48;;;9.32;;
76593;SDS011;65482;50.240;14.302;2024-03-07T10:50:22;18.20;;;9.82;;
76593;SDS011;65482;50.240;14.302;2024-03-07T10:52:58;22.92;;;10.93;;
76593;SDS011;65482;50.240;14.302;2024-03-07T10:55:40;20.08;;;11.63;;
76593;SDS011;65482;50.240;14.302;2024-03-07T10:58:42;24.55;;;11.07;;
76593;SDS011;65482;50.240;14.302;2024-03-07T11:01:30;19.63;;;10.10;;
76593;SDS011;65482;50.240;14.302;2024-03-07T11:04:01;16.77;;;9.57;;
76593;SDS011;65482;50.240;14.302;2024-03-07T11:06:37;14.85;;;8.27;;
76593;SDS011;65482;50.240;14.302;2024-03-07T11:09:04;19.65;;;9.38;;
76593;SDS011;65482;50.240;14.302;2024-03-07T11:11:37;24.13;;;9.63;;
76593;SDS011;65482;50.240;14.302;2024-03-07T11:14:16;19.50;;;9.90;;
76593;SDS011;65482;50.240;14.302;2024-03-07T11:16:53;16.75;;;9.07;;
76593;SDS011;65482;50.240;14.302;2024-03-07T11:19:27;20.77;;;10.43;;
76593;SDS011;65482;50.240;14.302;2024-03-07T11:21:58;20.83;;;10.60;;
76593;SDS011;65482;50.240;14.302;2024-03-07T11:25:17;17.45;;;9.30;;
76593;SDS011;65482;50.240;14.302;2024-03-07T11:27:44;20.33;;;10.00;;
76593;SDS011;65482;50.240;14.302;2024-03-07T11:30:39;20.92;;;8.88;;
76593;SDS011;65482;50.240;14.302;2024-03-07T11:33:15;19.15;;;9.70;;
76593;SDS011;65482;50.240;14.302;2024-03-07T11:36:12;17.07;;;8.60;;
76593;SDS011;65482;50.240;14.302;2024-03-07T11:38:44;20.30;;;9.40;;
76593;SDS011;65482;50.240;14.302;2024-03-07T11:41:19;16.30;;;8.60;;
76593;SDS011;65482;50.240;14.302;2024-03-07T11:43:52;18.80;;;8.95;;
76593;SDS011;65482;50.240;14.302;2024-03-07T11:46:22;20.60;;;9.50;;
76593;SDS011;65482;50.240;14.302;2024-03-07T11:48:54;18.40;;;9.10;;
76593;SDS011;65482;50.240;14.302;2024-03-07T11:51:27;16.10;;;9.13;;
76593;SDS011;65482;50.240;14.302;2024-03-07T11:53:57;17.58;;;9.48;;
76593;SDS011;65482;50.240;14.302;2024-03-07T11:56:22;15.20;;;8.50;;
76593;SDS011;65482;50.240;14.302;2024-03-07T11:58:48;15.15;;;8.50;;
76593;SDS011;65482;50.240;14.302;2024-03-07T12:01:21;18.27;;;8.80;;
76593;SDS011;65482;50.240;14.302;2024-03-07T12:03:55;17.55;;;8.73;;
76593;SDS011;65482;50.240;14.302;2024-03-07T12:06:52;18.52;;;8.80;;
76593;SDS011;65482;50.240;14.302;2024-03-07T12:09:37;16.73;;;8.85;;
76593;SDS011;65482;50.240;14.302;2024-03-07T12:12:26;19.42;;;8.27;;
76593;SDS011;65482;50.240;14.302;2024-03-07T12:16:02;16.83;;;7.80;;
76593;SDS011;65482;50.240;14.302;2024-03-07T12:18:38;17.63;;;8.75;;
76593;SDS011;65482;50.240;14.302;2024-03-07T12:21:13;15.55;;;8.43;;
76593;SDS011;65482;50.240;14.302;2024-03-07T12:23:49;21.27;;;8.85;;
76593;SDS011;65482;50.240;14.302;2024-03-07T12:26:38;16.30;;;8.13;;
76593;SDS011;65482;50.240;14.302;2024-03-07T12:29:25;17.88;;;8.43;;
76593;SDS011;65482;50.240;14.302;2024-03-07T12:31:59;16.52;;;8.20;;
76593;SDS011;65482;50.240;14.302;2024-03-07T12:34:25;17.05;;;9.27;;
76593;SDS011;65482;50.240;14.302;2024-03-07T12:36:59;17.05;;;8.77;;
76593;SDS011;65482;50.240;14.302;2024-03-07T12:39:31;18.92;;;8.02;;
76593;SDS011;65482;50.240;14.302;2024-03-07T12:42:02;21.58;;;9.13;;
76593;SDS011;65482;50.240;14.302;2024-03-07T12:44:41;18.02;;;10.02;;
76593;SDS011;65482;50.240;14.302;2024-03-07T12:47:11;18.35;;;9.25;;
76593;SDS011;65482;50.240;14.302;2024-03-07T12:49:45;16.00;;;8.70;;
76593;SDS011;65482;50.240;14.302;2024-03-07T12:56:11;20.50;;;10.05;;
76593;SDS011;65482;50.240;14.302;2024-03-07T12:58:42;16.13;;;9.30;;
76593;SDS011;65482;50.240;14.302;2024-03-07T13:01:11;17.08;;;10.10;;
76593;SDS011;65482;50.240;14.302;2024-03-07T13:03:38;21.75;;;10.90;;
76593;SDS011;65482;50.240;14.302;2024-03-07T13:06:04;19.75;;;10.25;;
76593;SDS011;65482;50.240;14.302;2024-03-07T13:08:30;20.67;;;9.65;;
76593;SDS011;65482;50.240;14.302;2024-03-07T13:10:56;19.90;;;10.27;;
76593;SDS011;65482;50.240;14.302;2024-03-07T13:13:58;20.00;;;9.70;;
76593;SDS011;65482;50.240;14.302;2024-03-07T13:16:23;22.00;;;10.40;;
76593;SDS011;65482;50.240;14.302;2024-03-07T13:19:38;19.00;;;9.70;;
76593;SDS011;65482;50.240;14.302;2024-03-07T13:22:19;16.60;;;9.32;;
76593;SDS011;65482;50.240;14.302;2024-03-07T13:25:42;19.35;;;9.60;;
76593;SDS011;65482;50.240;14.302;2024-03-07T13:28:11;17.52;;;8.82;;
76593;SDS011;65482;50.240;14.302;2024-03-07T13:30:58;16.95;;;9.40;;
76593;SDS011;65482;50.240;14.302;2024-03-07T13:33:24;21.02;;;10.05;;
76593;SDS011;65482;50.240;14.302;2024-03-07T13:35:49;15.80;;;9.43;;
76593;SDS011;65482;50.240;14.302;2024-03-07T13:38:15;15.88;;;9.27;;
76593;SDS011;65482;50.240;14.302;2024-03-07T13:40:42;19.38;;;10.07;;
76593;SDS011;65482;50.240;14.302;2024-03-07T13:43:20;14.93;;;9.45;;
76593;SDS011;65482;50.240;14.302;2024-03-07T13:49:08;14.10;;;8.85;;
76593;SDS011;65482;50.240;14.302;2024-03-07T13:52:08;16.35;;;9.00;;
76593;SDS011;65482;50.240;14.302;2024-03-07T14:44:06;21.17;;;10.10;;
76593;SDS011;65482;50.240;14.302;2024-03-07T14:46:35;14.50;;;9.38;;
76593;SDS011;65482;50.240;14.302;2024-03-07T14:49:00;17.67;;;10.13;;
76593;SDS011;65482;50.240;14.302;2024-03-07T14:51:29;20.23;;;10.38;;
76593;SDS011;65482;50.240;14.302;2024-03-07T14:53:59;20.08;;;10.05;;
76593;SDS011;65482;50.240;14.302;2024-03-07T14:56:28;17.92;;;9.75;;
76593;SDS011;65482;50.240;14.302;2024-03-07T14:58:54;19.05;;;10.55;;
76593;SDS011;65482;50.240;14.302;2024-03-07T15:01:19;20.85;;;10.23;;
76593;SDS011;65482;50.240;14.302;2024-03-07T15:03:45;20.98;;;10.77;;
76593;SDS011;65482;50.240;14.302;2024-03-07T15:06:12;28.73;;;11.27;;
76593;SDS011;65482;50.240;14.302;2024-03-07T15:08:43;18.92;;;9.98;;
76593;SDS011;65482;50.240;14.302;2024-03-07T15:11:34;25.23;;;10.85;;
76593;SDS011;65482;50.240;14.302;2024-03-07T15:14:42;24.17;;;10.25;;
76593;SDS011;65482;50.240;14.302;2024-03-07T15:17:21;21.73;;;10.70;;
76593;SDS011;65482;50.240;14.302;2024-03-07T15:20:31;21.20;;;10.73;;
76593;SDS011;65482;50.240;14.302;2024-03-07T15:23:04;21.05;;;10.55;;
76593;SDS011;65482;50.240;14.302;2024-03-07T15:25:33;20.85;;;11.02;;
76593;SDS011;65482;50.240;14.302;2024-03-07T15:27:59;22.15;;;11.48;;
76593;SDS011;65482;50.240;14.302;2024-03-07T15:30:25;24.48;;;11.73;;
76593;SDS011;65482;50.240;14.302;2024-03-07T15:33:00;19.85;;;11.77;;
76593;SDS011;65482;50.240;14.302;2024-03-07T15:35:27;17.65;;;10.05;;
76593;SDS011;65482;50.240;14.302;2024-03-07T15:37:53;15.40;;;9.57;;
76593;SDS011;65482;50.240;14.302;2024-03-07T15:40:19;32.17;;;11.52;;
76593;SDS011;65482;50.240;14.302;2024-03-07T15:43:04;17.08;;;10.18;;
76593;SDS011;65482;50.240;14.302;2024-03-07T15:45:30;19.75;;;9.60;;
76593;SDS011;65482;50.240;14.302;2024-03-07T15:48:00;20.83;;;9.68;;
76593;SDS011;65482;50.240;14.302;2024-03-07T15:50:38;17.83;;;9.55;;
76593;SDS011;65482;50.240;14.302;2024-03-07T15:53:39;26.48;;;12.43;;
76593;SDS011;65482;50.240;14.302;2024-03-07T16:12:21;23.08;;;12.48;;
76593;SDS011;65482;50.240;14.302;2024-03-07T16:14:49;25.85;;;12.95;;
76593;SDS011;65482;50.240;14.302;2024-03-07T16:17:16;24.35;;;12.40;;
76593;SDS011;65482;50.240;14.302;2024-03-07T16:19:44;27.38;;;12.43;;
76593;SDS011;65482;50.240;14.302;2024-03-07T16:22:12;24.73;;;12.50;;
76593;SDS011;65482;50.240;14.302;2024-03-07T16:24:39;25.45;;;11.93;;
76593;SDS011;65482;50.240;14.302;2024-03-07T16:27:04;24.48;;;12.07;;